sensor_id;sensor_type;location;lat;lon;timestamp;pressure;altitude;pressure_sealevel;temperature;humidity
62436;BME280;48480;50.252;18.848;2022-08-23T00:02:13;98301.48;;;19.41;87.42
62436;BME280;48480;50.252;18.848;2022-08-23T00:04:41;98297.12;;;19.40;87.59
62436;BME280;48480;50.252;18.848;2022-08-23T00:07:11;98299.23;;;19.40;87.30
62436;BME280;48480;50.252;18.848;2022-08-23T00:09:38;98309.08;;;19.38;87.18
62436;BME280;48480;50.252;18.848;2022-08-23T00:14:40;98308.42;;;19.35;87.27
62436;BME280;48480;50.252;18.848;2022-08-23T00:17:08;98316.73;;;19.35;87.45
62436;BME280;48480;50.252;18.848;2022-08-23T00:19:36;98314.08;;;19.31;87.44
62436;BME280;48480;50.252;18.848;2022-08-23T00:22:03;98316.53;;;19.28;87.36
62436;BME280;48480;50.252;18.848;2022-08-23T00:24:30;98320.10;;;19.27;87.55
62436;BME280;48480;50.252;18.848;2022-08-23T00:27:05;98324.70;;;19.30;87.56
62436;BME280;48480;50.252;18.848;2022-08-23T00:29:40;98323.61;;;19.30;87.17
62436;BME280;48480;50.252;18.848;2022-08-23T00:32:10;98326.71;;;19.28;87.28
62436;BME280;48480;50.252;18.848;2022-08-23T00:34:37;98323.58;;;19.24;87.26
62436;BME280;48480;50.252;18.848;2022-08-23T00:37:06;98324.70;;;19.20;87.20
62436;BME280;48480;50.252;18.848;2022-08-23T00:39:33;98323.14;;;19.19;87.44
62436;BME280;48480;50.252;18.848;2022-08-23T00:42:08;98321.27;;;19.19;87.19
62436;BME280;48480;50.252;18.848;2022-08-23T00:44:57;98324.16;;;19.19;86.94
62436;BME280;48480;50.252;18.848;2022-08-23T00:47:43;98317.14;;;19.17;86.78
62436;BME280;48480;50.252;18.848;2022-08-23T00:50:23;98316.32;;;19.12;86.94
62436;BME280;48480;50.252;18.848;2022-08-23T00:53:02;98311.41;;;19.10;87.13
62436;BME280;48480;50.252;18.848;2022-08-23T00:55:31;98315.91;;;19.08;86.94
62436;BME280;48480;50.252;18.848;2022-08-23T00:57:59;98321.23;;;19.05;86.91
62436;BME280;48480;50.252;18.848;2022-08-23T01:00:27;98319.16;;;18.99;86.97
62436;BME280;48480;50.252;18.848;2022-08-23T01:02:54;98319.52;;;18.96;87.33
62436;BME280;48480;50.252;18.848;2022-08-23T01:05:24;98323.00;;;18.94;87.28
62436;BME280;48480;50.252;18.848;2022-08-23T01:07:56;98319.17;;;18.90;87.57
62436;BME280;48480;50.252;18.848;2022-08-23T01:10:30;98317.34;;;18.86;87.54
62436;BME280;48480;50.252;18.848;2022-08-23T01:13:05;98323.44;;;18.82;87.48
62436;BME280;48480;50.252;18.848;2022-08-23T01:15:40;98325.85;;;18.84;87.62
62436;BME280;48480;50.252;18.848;2022-08-23T01:18:11;98326.50;;;18.86;87.63
62436;BME280;48480;50.252;18.848;2022-08-23T01:20:45;98329.10;;;18.90;87.72
62436;BME280;48480;50.252;18.848;2022-08-23T01:23:39;98334.16;;;18.93;87.66
62436;BME280;48480;50.252;18.848;2022-08-23T01:26:07;98335.99;;;18.96;87.62
62436;BME280;48480;50.252;18.848;2022-08-23T01:28:34;98337.30;;;18.96;87.76
62436;BME280;48480;50.252;18.848;2022-08-23T01:31:02;98337.11;;;18.92;87.70
62436;BME280;48480;50.252;18.848;2022-08-23T01:33:29;98340.19;;;18.89;87.77
62436;BME280;48480;50.252;18.848;2022-08-23T01:35:57;98337.77;;;18.88;87.74
62436;BME280;48480;50.252;18.848;2022-08-23T01:38:25;98336.44;;;18.86;87.98
62436;BME280;48480;50.252;18.848;2022-08-23T01:40:52;98340.41;;;18.88;87.95
62436;BME280;48480;50.252;18.848;2022-08-23T01:43:19;98345.70;;;18.89;87.91
62436;BME280;48480;50.252;18.848;2022-08-23T01:45:48;98347.56;;;18.89;87.97
62436;BME280;48480;50.252;18.848;2022-08-23T01:48:16;98346.17;;;18.89;88.09
62436;BME280;48480;50.252;18.848;2022-08-23T01:50:43;98346.46;;;18.88;88.21
62436;BME280;48480;50.252;18.848;2022-08-23T01:53:11;98343.11;;;18.86;88.47
62436;BME280;48480;50.252;18.848;2022-08-23T01:55:40;98344.45;;;18.89;88.50
62436;BME280;48480;50.252;18.848;2022-08-23T01:58:07;98344.33;;;18.91;88.35
62436;BME280;48480;50.252;18.848;2022-08-23T02:00:37;98345.23;;;18.94;88.31
62436;BME280;48480;50.252;18.848;2022-08-23T02:03:04;98340.27;;;18.95;88.32
62436;BME280;48480;50.252;18.848;2022-08-23T02:05:32;98343.98;;;18.96;88.12
62436;BME280;48480;50.252;18.848;2022-08-23T02:07:59;98339.24;;;18.95;88.10
62436;BME280;48480;50.252;18.848;2022-08-23T02:10:48;98334.61;;;18.90;88.16
62436;BME280;48480;50.252;18.848;2022-08-23T02:13:16;98339.08;;;18.87;88.31
62436;BME280;48480;50.252;18.848;2022-08-23T02:15:44;98338.77;;;18.86;88.11
62436;BME280;48480;50.252;18.848;2022-08-23T02:18:12;98340.25;;;18.86;88.28
62436;BME280;48480;50.252;18.848;2022-08-23T02:20:47;98341.89;;;18.88;88.07
62436;BME280;48480;50.252;18.848;2022-08-23T02:23:14;98336.88;;;18.85;87.83
62436;BME280;48480;50.252;18.848;2022-08-23T02:25:41;98339.10;;;18.88;87.92
62436;BME280;48480;50.252;18.848;2022-08-23T02:28:08;98338.84;;;18.85;87.97
62436;BME280;48480;50.252;18.848;2022-08-23T02:30:35;98344.58;;;18.85;88.00
62436;BME280;48480;50.252;18.848;2022-08-23T02:33:02;98344.81;;;18.84;87.90
62436;BME280;48480;50.252;18.848;2022-08-23T02:35:28;98346.36;;;18.84;87.90
62436;BME280;48480;50.252;18.848;2022-08-23T02:37:55;98348.05;;;18.84;87.92
62436;BME280;48480;50.252;18.848;2022-08-23T02:40:21;98353.27;;;18.84;87.84
62436;BME280;48480;50.252;18.848;2022-08-23T02:42:48;98358.19;;;18.87;87.87
62436;BME280;48480;50.252;18.848;2022-08-23T02:45:14;98362.98;;;18.85;87.87
62436;BME280;48480;50.252;18.848;2022-08-23T02:47:43;98369.89;;;18.84;87.89
62436;BME280;48480;50.252;18.848;2022-08-23T02:50:10;98366.85;;;18.84;87.88
62436;BME280;48480;50.252;18.848;2022-08-23T02:52:37;98363.46;;;18.87;87.95
62436;BME280;48480;50.252;18.848;2022-08-23T02:55:04;98355.96;;;18.90;87.92
62436;BME280;48480;50.252;18.848;2022-08-23T02:57:31;98359.83;;;18.89;87.75
62436;BME280;48480;50.252;18.848;2022-08-23T02:59:57;98358.87;;;18.85;87.86
62436;BME280;48480;50.252;18.848;2022-08-23T03:02:23;98362.89;;;18.84;88.03
62436;BME280;48480;50.252;18.848;2022-08-23T03:04:50;98358.91;;;18.82;88.10
62436;BME280;48480;50.252;18.848;2022-08-23T03:07:16;98360.45;;;18.81;88.14
62436;BME280;48480;50.252;18.848;2022-08-23T03:09:43;98356.38;;;18.79;88.46
62436;BME280;48480;50.252;18.848;2022-08-23T03:12:10;98356.77;;;18.80;88.39
62436;BME280;48480;50.252;18.848;2022-08-23T03:14:36;98355.04;;;18.82;88.45
62436;BME280;48480;50.252;18.848;2022-08-23T03:17:05;98355.41;;;18.81;88.42
62436;BME280;48480;50.252;18.848;2022-08-23T03:19:33;98359.34;;;18.85;88.59
62436;BME280;48480;50.252;18.848;2022-08-23T03:22:00;98365.63;;;18.86;88.27
62436;BME280;48480;50.252;18.848;2022-08-23T03:24:26;98366.86;;;18.85;88.28
62436;BME280;48480;50.252;18.848;2022-08-23T03:26:53;98367.06;;;18.83;88.35
62436;BME280;48480;50.252;18.848;2022-08-23T03:29:20;98362.46;;;18.81;88.52
62436;BME280;48480;50.252;18.848;2022-08-23T03:31:46;98361.67;;;18.80;88.73
62436;BME280;48480;50.252;18.848;2022-08-23T03:34:13;98363.04;;;18.79;88.53
62436;BME280;48480;50.252;18.848;2022-08-23T03:36:39;98372.25;;;18.77;88.59
62436;BME280;48480;50.252;18.848;2022-08-23T03:39:06;98370.79;;;18.78;88.61
62436;BME280;48480;50.252;18.848;2022-08-23T03:41:32;98367.83;;;18.77;88.67
62436;BME280;48480;50.252;18.848;2022-08-23T03:43:59;98366.45;;;18.79;88.88
62436;BME280;48480;50.252;18.848;2022-08-23T03:46:25;98366.16;;;18.79;88.70
62436;BME280;48480;50.252;18.848;2022-08-23T03:48:56;98367.39;;;18.79;88.73
62436;BME280;48480;50.252;18.848;2022-08-23T03:51:26;98370.09;;;18.82;88.74
62436;BME280;48480;50.252;18.848;2022-08-23T03:53:53;98373.61;;;18.85;88.73
62436;BME280;48480;50.252;18.848;2022-08-23T03:58:49;98375.70;;;18.92;88.64
62436;BME280;48480;50.252;18.848;2022-08-23T04:01:16;98376.73;;;18.94;88.61
62436;BME280;48480;50.252;18.848;2022-08-23T04:03:42;98383.61;;;18.91;88.66
62436;BME280;48480;50.252;18.848;2022-08-23T04:06:10;98381.02;;;18.88;88.77
62436;BME280;48480;50.252;18.848;2022-08-23T04:08:37;98385.21;;;18.87;88.93
62436;BME280;48480;50.252;18.848;2022-08-23T04:11:03;98380.24;;;18.88;88.93
62436;BME280;48480;50.252;18.848;2022-08-23T04:13:30;98384.09;;;18.91;88.97
62436;BME280;48480;50.252;18.848;2022-08-23T04:15:57;98387.73;;;18.91;89.00
62436;BME280;48480;50.252;18.848;2022-08-23T04:18:23;98383.64;;;18.86;88.95
62436;BME280;48480;50.252;18.848;2022-08-23T04:20:50;98391.64;;;18.94;89.20
62436;BME280;48480;50.252;18.848;2022-08-23T04:23:17;98395.16;;;18.95;89.22
62436;BME280;48480;50.252;18.848;2022-08-23T04:25:44;98393.14;;;18.95;89.31
62436;BME280;48480;50.252;18.848;2022-08-23T04:28:10;98392.42;;;18.94;89.15
62436;BME280;48480;50.252;18.848;2022-08-23T04:30:37;98392.79;;;18.92;88.90
62436;BME280;48480;50.252;18.848;2022-08-23T04:33:04;98398.71;;;18.94;89.07
62436;BME280;48480;50.252;18.848;2022-08-23T04:35:31;98401.70;;;18.97;88.97
62436;BME280;48480;50.252;18.848;2022-08-23T04:37:57;98403.27;;;19.00;89.17
62436;BME280;48480;50.252;18.848;2022-08-23T04:40:24;98404.69;;;19.01;88.94
62436;BME280;48480;50.252;18.848;2022-08-23T04:43:09;98407.24;;;19.01;89.33
62436;BME280;48480;50.252;18.848;2022-08-23T04:45:39;98403.44;;;19.01;89.09
62436;BME280;48480;50.252;18.848;2022-08-23T04:48:06;98406.07;;;18.99;89.19
62436;BME280;48480;50.252;18.848;2022-08-23T04:50:34;98409.13;;;19.03;89.27
62436;BME280;48480;50.252;18.848;2022-08-23T04:53:02;98410.42;;;19.08;89.18
62436;BME280;48480;50.252;18.848;2022-08-23T04:55:28;98415.15;;;19.13;88.91
62436;BME280;48480;50.252;18.848;2022-08-23T04:58:00;98417.80;;;19.15;88.88
62436;BME280;48480;50.252;18.848;2022-08-23T05:00:27;98417.13;;;19.17;88.98
62436;BME280;48480;50.252;18.848;2022-08-23T05:05:19;98415.20;;;19.20;89.14
62436;BME280;48480;50.252;18.848;2022-08-23T05:07:46;98411.77;;;19.25;88.80
62436;BME280;48480;50.252;18.848;2022-08-23T05:10:17;98416.30;;;19.29;88.74
62436;BME280;48480;50.252;18.848;2022-08-23T05:12:44;98421.83;;;19.31;88.55
62436;BME280;48480;50.252;18.848;2022-08-23T05:17:37;98428.89;;;19.28;88.71
62436;BME280;48480;50.252;18.848;2022-08-23T05:20:06;98429.19;;;19.27;88.74
62436;BME280;48480;50.252;18.848;2022-08-23T05:25:13;98432.96;;;19.24;88.74
62436;BME280;48480;50.252;18.848;2022-08-23T05:27:40;98432.02;;;19.22;88.75
62436;BME280;48480;50.252;18.848;2022-08-23T05:30:07;98430.73;;;19.20;88.97
62436;BME280;48480;50.252;18.848;2022-08-23T05:35:11;98432.16;;;19.22;89.10
62436;BME280;48480;50.252;18.848;2022-08-23T05:37:38;98430.38;;;19.29;89.18
62436;BME280;48480;50.252;18.848;2022-08-23T05:40:06;98433.45;;;19.34;89.30
62436;BME280;48480;50.252;18.848;2022-08-23T05:42:33;98434.49;;;19.39;89.19
62436;BME280;48480;50.252;18.848;2022-08-23T05:45:00;98440.67;;;19.44;89.08
62436;BME280;48480;50.252;18.848;2022-08-23T05:47:26;98436.24;;;19.52;89.14
62436;BME280;48480;50.252;18.848;2022-08-23T05:49:53;98437.64;;;19.61;88.96
62436;BME280;48480;50.252;18.848;2022-08-23T05:52:21;98440.27;;;19.68;88.76
62436;BME280;48480;50.252;18.848;2022-08-23T05:54:48;98440.80;;;19.73;88.49
62436;BME280;48480;50.252;18.848;2022-08-23T05:57:14;98438.81;;;19.77;88.48
62436;BME280;48480;50.252;18.848;2022-08-23T05:59:41;98444.45;;;19.82;88.47
62436;BME280;48480;50.252;18.848;2022-08-23T06:02:08;98447.08;;;19.90;88.49
62436;BME280;48480;50.252;18.848;2022-08-23T06:04:35;98450.27;;;20.01;88.52
62436;BME280;48480;50.252;18.848;2022-08-23T06:07:02;98455.86;;;20.12;88.41
62436;BME280;48480;50.252;18.848;2022-08-23T06:09:29;98457.96;;;20.22;88.14
62436;BME280;48480;50.252;18.848;2022-08-23T06:11:55;98463.77;;;20.30;87.88
62436;BME280;48480;50.252;18.848;2022-08-23T06:14:27;98461.48;;;20.37;87.69
62436;BME280;48480;50.252;18.848;2022-08-23T06:16:54;98462.51;;;20.43;87.61
62436;BME280;48480;50.252;18.848;2022-08-23T06:19:21;98461.89;;;20.46;86.90
62436;BME280;48480;50.252;18.848;2022-08-23T06:21:48;98457.33;;;20.51;86.87
62436;BME280;48480;50.252;18.848;2022-08-23T06:24:17;98459.11;;;20.60;86.45
62436;BME280;48480;50.252;18.848;2022-08-23T06:26:44;98456.20;;;20.69;86.26
62436;BME280;48480;50.252;18.848;2022-08-23T06:29:20;98455.39;;;20.77;85.80
62436;BME280;48480;50.252;18.848;2022-08-23T06:31:49;98459.99;;;20.83;85.75
62436;BME280;48480;50.252;18.848;2022-08-23T06:34:29;98458.30;;;20.84;85.40
62436;BME280;48480;50.252;18.848;2022-08-23T06:37:01;98461.89;;;20.85;85.27
62436;BME280;48480;50.252;18.848;2022-08-23T06:42:03;98469.27;;;20.82;84.94
62436;BME280;48480;50.252;18.848;2022-08-23T06:44:33;98470.91;;;20.84;84.96
62436;BME280;48480;50.252;18.848;2022-08-23T06:47:00;98470.84;;;20.88;85.04
62436;BME280;48480;50.252;18.848;2022-08-23T06:49:33;98470.38;;;20.87;85.18
62436;BME280;48480;50.252;18.848;2022-08-23T06:52:00;98473.27;;;20.87;85.36
62436;BME280;48480;50.252;18.848;2022-08-23T06:54:32;98471.85;;;20.86;85.20
62436;BME280;48480;50.252;18.848;2022-08-23T06:57:00;98476.52;;;20.83;85.11
62436;BME280;48480;50.252;18.848;2022-08-23T07:02:08;98477.46;;;20.88;84.97
62436;BME280;48480;50.252;18.848;2022-08-23T07:04:38;98478.24;;;20.86;85.01
62436;BME280;48480;50.252;18.848;2022-08-23T07:07:06;98472.09;;;20.88;85.21
62436;BME280;48480;50.252;18.848;2022-08-23T07:09:33;98475.69;;;20.91;85.29
62436;BME280;48480;50.252;18.848;2022-08-23T07:12:13;98484.64;;;20.92;85.14
62436;BME280;48480;50.252;18.848;2022-08-23T07:14:40;98483.09;;;20.94;84.96
62436;BME280;48480;50.252;18.848;2022-08-23T07:17:07;98484.91;;;20.96;84.81
62436;BME280;48480;50.252;18.848;2022-08-23T07:19:35;98485.77;;;21.01;84.67
62436;BME280;48480;50.252;18.848;2022-08-23T07:24:40;98489.08;;;21.11;84.42
62436;BME280;48480;50.252;18.848;2022-08-23T07:27:08;98490.02;;;21.09;84.49
62436;BME280;48480;50.252;18.848;2022-08-23T07:29:36;98492.27;;;21.12;84.15
62436;BME280;48480;50.252;18.848;2022-08-23T07:32:03;98490.55;;;21.08;84.13
62436;BME280;48480;50.252;18.848;2022-08-23T07:37:06;98494.45;;;21.10;84.82
62436;BME280;48480;50.252;18.848;2022-08-23T07:41:59;98493.44;;;21.12;84.90
62436;BME280;48480;50.252;18.848;2022-08-23T07:44:29;98496.09;;;21.12;84.98
62436;BME280;48480;50.252;18.848;2022-08-23T07:49:32;98499.61;;;21.17;84.80
62436;BME280;48480;50.252;18.848;2022-08-23T07:51:59;98499.54;;;21.16;85.08
62436;BME280;48480;50.252;18.848;2022-08-23T07:54:26;98497.25;;;21.12;84.92
62436;BME280;48480;50.252;18.848;2022-08-23T07:56:56;98502.65;;;21.13;85.00
62436;BME280;48480;50.252;18.848;2022-08-23T08:01:53;98503.10;;;21.11;84.78
62436;BME280;48480;50.252;18.848;2022-08-23T08:04:19;98509.58;;;21.10;84.94
62436;BME280;48480;50.252;18.848;2022-08-23T08:06:47;98509.79;;;21.09;85.12
62436;BME280;48480;50.252;18.848;2022-08-23T08:09:15;98515.71;;;21.08;84.82
62436;BME280;48480;50.252;18.848;2022-08-23T08:14:17;98516.16;;;20.99;85.01
62436;BME280;48480;50.252;18.848;2022-08-23T08:16:47;98519.48;;;20.96;85.20
62436;BME280;48480;50.252;18.848;2022-08-23T08:19:15;98518.80;;;20.97;85.39
62436;BME280;48480;50.252;18.848;2022-08-23T08:21:49;98519.82;;;20.99;85.05
62436;BME280;48480;50.252;18.848;2022-08-23T08:24:24;98519.44;;;21.02;84.77
62436;BME280;48480;50.252;18.848;2022-08-23T08:26:51;98528.33;;;21.07;84.89
62436;BME280;48480;50.252;18.848;2022-08-23T08:29:17;98525.77;;;21.11;84.81
62436;BME280;48480;50.252;18.848;2022-08-23T08:31:44;98534.38;;;21.18;84.96
62436;BME280;48480;50.252;18.848;2022-08-23T08:34:13;98539.00;;;21.24;84.73
62436;BME280;48480;50.252;18.848;2022-08-23T08:36:56;98542.52;;;21.32;84.62
62436;BME280;48480;50.252;18.848;2022-08-23T08:39:26;98548.70;;;21.38;84.40
62436;BME280;48480;50.252;18.848;2022-08-23T08:44:52;98549.38;;;21.49;83.82
62436;BME280;48480;50.252;18.848;2022-08-23T08:52:40;98547.38;;;21.55;83.19
62436;BME280;48480;50.252;18.848;2022-08-23T08:55:18;98549.66;;;21.61;82.69
62436;BME280;48480;50.252;18.848;2022-08-23T09:00:27;98554.81;;;21.72;82.49
62436;BME280;48480;50.252;18.848;2022-08-23T09:02:57;98548.67;;;21.77;82.05
62436;BME280;48480;50.252;18.848;2022-08-23T09:05:29;98553.04;;;21.83;82.15
62436;BME280;48480;50.252;18.848;2022-08-23T09:10:46;98559.67;;;21.95;81.59
62436;BME280;48480;50.252;18.848;2022-08-23T09:18:31;98568.27;;;22.18;81.12
62436;BME280;48480;50.252;18.848;2022-08-23T09:20:57;98573.13;;;22.24;80.84
62436;BME280;48480;50.252;18.848;2022-08-23T09:23:35;98575.71;;;22.25;80.78
62436;BME280;48480;50.252;18.848;2022-08-23T09:29:02;98577.76;;;22.36;80.23
62436;BME280;48480;50.252;18.848;2022-08-23T09:40:11;98590.23;;;22.36;79.09
62436;BME280;48480;50.252;18.848;2022-08-23T09:42:40;98589.63;;;22.39;79.11
62436;BME280;48480;50.252;18.848;2022-08-23T09:47:45;98585.39;;;22.44;78.56
62436;BME280;48480;50.252;18.848;2022-08-23T09:52:48;98583.29;;;22.41;79.04
62436;BME280;48480;50.252;18.848;2022-08-23T09:57:59;98584.92;;;22.39;79.01
62436;BME280;48480;50.252;18.848;2022-08-23T10:00:31;98586.41;;;22.38;79.38
62436;BME280;48480;50.252;18.848;2022-08-23T10:05:54;98589.45;;;22.31;79.50
62436;BME280;48480;50.252;18.848;2022-08-23T10:08:23;98588.96;;;22.22;79.15
62436;BME280;48480;50.252;18.848;2022-08-23T10:10:52;98590.05;;;22.16;79.39
62436;BME280;48480;50.252;18.848;2022-08-23T10:13:38;98590.52;;;22.12;79.39
62436;BME280;48480;50.252;18.848;2022-08-23T10:20:00;98596.07;;;22.13;79.35
62436;BME280;48480;50.252;18.848;2022-08-23T10:25:33;98597.38;;;22.05;79.45
62436;BME280;48480;50.252;18.848;2022-08-23T10:28:46;98582.08;;;21.92;79.81
62436;BME280;48480;50.252;18.848;2022-08-23T10:43:16;98613.61;;;22.08;79.67
62436;BME280;48480;50.252;18.848;2022-08-23T10:45:48;98614.95;;;22.08;79.52
62436;BME280;48480;50.252;18.848;2022-08-23T10:48:49;98598.62;;;21.93;79.56
62436;BME280;48480;50.252;18.848;2022-08-23T10:56:27;98617.33;;;21.91;80.29
62436;BME280;48480;50.252;18.848;2022-08-23T11:04:47;98623.28;;;21.69;80.72
62436;BME280;48480;50.252;18.848;2022-08-23T11:07:20;98617.25;;;21.61;81.14
62436;BME280;48480;50.252;18.848;2022-08-23T11:12:33;98621.60;;;21.53;81.23
62436;BME280;48480;50.252;18.848;2022-08-23T11:15:11;98624.70;;;21.48;81.52
62436;BME280;48480;50.252;18.848;2022-08-23T11:18:01;98628.34;;;21.44;81.88
62436;BME280;48480;50.252;18.848;2022-08-23T11:25:45;98630.73;;;21.55;82.21
62436;BME280;48480;50.252;18.848;2022-08-23T11:30:50;98632.40;;;21.65;81.74
62436;BME280;48480;50.252;18.848;2022-08-23T12:18:14;98636.16;;;23.10;76.60
62436;BME280;48480;50.252;18.848;2022-08-23T12:23:17;98637.05;;;23.28;76.86
62436;BME280;48480;50.252;18.848;2022-08-23T12:25:45;98637.32;;;23.42;75.91
62436;BME280;48480;50.252;18.848;2022-08-23T12:31:18;98641.32;;;23.75;74.81
62436;BME280;48480;50.252;18.848;2022-08-23T12:37:01;98637.27;;;24.13;73.77
62436;BME280;48480;50.252;18.848;2022-08-23T12:39:36;98642.39;;;24.33;74.11
62436;BME280;48480;50.252;18.848;2022-08-23T12:44:36;98642.64;;;24.40;73.10
62436;BME280;48480;50.252;18.848;2022-08-23T12:49:34;98646.55;;;24.40;72.22
62436;BME280;48480;50.252;18.848;2022-08-23T12:52:06;98647.27;;;24.28;72.52
62436;BME280;48480;50.252;18.848;2022-08-23T12:54:43;98643.83;;;24.17;72.67
62436;BME280;48480;50.252;18.848;2022-08-23T12:57:15;98644.77;;;24.04;73.15
62436;BME280;48480;50.252;18.848;2022-08-23T12:59:56;98642.61;;;23.97;73.29
62436;BME280;48480;50.252;18.848;2022-08-23T13:05:14;98645.79;;;23.90;72.71
62436;BME280;48480;50.252;18.848;2022-08-23T13:07:42;98648.26;;;23.84;72.67
62436;BME280;48480;50.252;18.848;2022-08-23T13:10:09;98642.64;;;23.78;72.98
62436;BME280;48480;50.252;18.848;2022-08-23T13:12:42;98646.15;;;23.77;73.26
62436;BME280;48480;50.252;18.848;2022-08-23T13:15:09;98646.55;;;23.82;73.14
62436;BME280;48480;50.252;18.848;2022-08-23T13:17:38;98647.61;;;23.87;72.97
62436;BME280;48480;50.252;18.848;2022-08-23T13:20:16;98646.21;;;24.00;72.88
62436;BME280;48480;50.252;18.848;2022-08-23T13:25:22;98641.55;;;24.18;72.34
62436;BME280;48480;50.252;18.848;2022-08-23T13:27:52;98642.73;;;24.27;72.06
62436;BME280;48480;50.252;18.848;2022-08-23T13:30:23;98641.27;;;24.35;71.76
62436;BME280;48480;50.252;18.848;2022-08-23T13:43:23;98639.77;;;24.78;69.82
62436;BME280;48480;50.252;18.848;2022-08-23T13:45:53;98641.52;;;24.74;69.57
62436;BME280;48480;50.252;18.848;2022-08-23T13:48:31;98640.73;;;24.75;70.53
62436;BME280;48480;50.252;18.848;2022-08-23T13:51:23;98636.17;;;24.86;69.91
62436;BME280;48480;50.252;18.848;2022-08-23T13:53:51;98639.67;;;24.95;69.50
62436;BME280;48480;50.252;18.848;2022-08-23T13:56:19;98630.70;;;24.98;69.67
62436;BME280;48480;50.252;18.848;2022-08-23T14:01:18;98639.61;;;24.94;69.19
62436;BME280;48480;50.252;18.848;2022-08-23T14:06:10;98635.25;;;24.74;69.70
62436;BME280;48480;50.252;18.848;2022-08-23T14:11:02;98630.63;;;24.74;69.53
62436;BME280;48480;50.252;18.848;2022-08-23T14:13:32;98626.66;;;24.79;69.90
62436;BME280;48480;50.252;18.848;2022-08-23T14:16:02;98623.08;;;24.85;69.48
62436;BME280;48480;50.252;18.848;2022-08-23T14:20:55;98617.77;;;24.99;68.42
62436;BME280;48480;50.252;18.848;2022-08-23T14:23:22;98619.17;;;24.92;67.93
62436;BME280;48480;50.252;18.848;2022-08-23T14:30:39;98602.11;;;24.64;67.46
62436;BME280;48480;50.252;18.848;2022-08-23T14:37:56;98618.11;;;24.72;68.16
62436;BME280;48480;50.252;18.848;2022-08-23T14:42:53;98615.86;;;24.61;68.89
62436;BME280;48480;50.252;18.848;2022-08-23T14:45:20;98613.02;;;24.54;69.24
62436;BME280;48480;50.252;18.848;2022-08-23T14:47:47;98609.58;;;24.49;69.71
62436;BME280;48480;50.252;18.848;2022-08-23T14:52:42;98614.52;;;24.49;69.61
62436;BME280;48480;50.252;18.848;2022-08-23T14:55:24;98613.95;;;24.56;69.62
62436;BME280;48480;50.252;18.848;2022-08-23T14:57:50;98614.23;;;24.60;69.35
62436;BME280;48480;50.252;18.848;2022-08-23T15:00:18;98617.21;;;24.59;69.38
62436;BME280;48480;50.252;18.848;2022-08-23T15:05:22;98617.87;;;24.42;69.33
62436;BME280;48480;50.252;18.848;2022-08-23T15:07:49;98616.84;;;24.35;69.48
62436;BME280;48480;50.252;18.848;2022-08-23T15:10:16;98620.71;;;24.30;69.80
62436;BME280;48480;50.252;18.848;2022-08-23T15:12:42;98621.08;;;24.23;69.79
62436;BME280;48480;50.252;18.848;2022-08-23T15:15:14;98629.52;;;24.17;70.01
62436;BME280;48480;50.252;18.848;2022-08-23T15:20:09;98627.66;;;24.01;71.73
62436;BME280;48480;50.252;18.848;2022-08-23T15:22:36;98631.61;;;23.96;71.62
62436;BME280;48480;50.252;18.848;2022-08-23T15:29:56;98653.81;;;23.99;71.05
62436;BME280;48480;50.252;18.848;2022-08-23T15:32:31;98647.83;;;23.89;70.93
62436;BME280;48480;50.252;18.848;2022-08-23T15:39:48;98662.20;;;23.82;71.99
62436;BME280;48480;50.252;18.848;2022-08-23T15:42:15;98668.38;;;23.81;72.05
62436;BME280;48480;50.252;18.848;2022-08-23T15:44:55;98667.92;;;23.80;72.17
62436;BME280;48480;50.252;18.848;2022-08-23T15:47:25;98674.33;;;23.78;72.31
62436;BME280;48480;50.252;18.848;2022-08-23T15:52:18;98673.10;;;23.70;72.76
62436;BME280;48480;50.252;18.848;2022-08-23T15:57:29;98677.02;;;23.48;72.46
62436;BME280;48480;50.252;18.848;2022-08-23T15:59:57;98676.59;;;23.40;72.74
62436;BME280;48480;50.252;18.848;2022-08-23T16:04:52;98676.02;;;23.16;73.81
62436;BME280;48480;50.252;18.848;2022-08-23T16:07:21;98662.14;;;22.91;74.31
62436;BME280;48480;50.252;18.848;2022-08-23T16:09:48;98682.98;;;22.94;74.87
62436;BME280;48480;50.252;18.848;2022-08-23T16:12:14;98687.14;;;22.92;75.53
62436;BME280;48480;50.252;18.848;2022-08-23T16:14:41;98688.45;;;22.95;75.60
62436;BME280;48480;50.252;18.848;2022-08-23T16:17:08;98682.66;;;22.95;75.31
62436;BME280;48480;50.252;18.848;2022-08-23T16:22:05;98689.86;;;22.96;75.95
62436;BME280;48480;50.252;18.848;2022-08-23T16:24:32;98692.05;;;22.94;75.91
62436;BME280;48480;50.252;18.848;2022-08-23T16:26:59;98690.65;;;22.93;75.63
62436;BME280;48480;50.252;18.848;2022-08-23T16:29:25;98692.77;;;22.91;75.52
62436;BME280;48480;50.252;18.848;2022-08-23T16:32:08;98692.68;;;22.87;75.31
62436;BME280;48480;50.252;18.848;2022-08-23T16:34:34;98691.60;;;22.79;75.32
62436;BME280;48480;50.252;18.848;2022-08-23T16:37:05;98693.33;;;22.69;75.85
62436;BME280;48480;50.252;18.848;2022-08-23T16:42:02;98698.07;;;22.48;76.39
62436;BME280;48480;50.252;18.848;2022-08-23T16:44:37;98704.70;;;22.41;76.62
62436;BME280;48480;50.252;18.848;2022-08-23T16:47:07;98706.96;;;22.34;76.79
62436;BME280;48480;50.252;18.848;2022-08-23T16:49:35;98706.61;;;22.23;77.03
62436;BME280;48480;50.252;18.848;2022-08-23T16:52:03;98708.61;;;22.17;77.37
62436;BME280;48480;50.252;18.848;2022-08-23T16:57:00;98721.71;;;22.11;77.96
62436;BME280;48480;50.252;18.848;2022-08-23T16:59:27;98720.92;;;22.08;78.30
62436;BME280;48480;50.252;18.848;2022-08-23T17:01:59;98723.26;;;22.05;78.44
62436;BME280;48480;50.252;18.848;2022-08-23T17:04:30;98725.58;;;22.00;78.66
62436;BME280;48480;50.252;18.848;2022-08-23T17:07:02;98729.31;;;21.96;79.00
62436;BME280;48480;50.252;18.848;2022-08-23T17:09:29;98726.17;;;21.90;78.96